createdAt,value
2019-03-10T00:01:43.243Z,31.86
2019-03-10T00:04:46.742Z,31.90
2019-03-10T00:07:50.238Z,32.00
2019-03-10T00:10:55.688Z,31.82
2019-03-10T00:13:59.166Z,31.99
2019-03-10T00:17:03.721Z,31.81
2019-03-10T00:20:08.407Z,31.94
2019-03-10T00:23:11.932Z,31.91
2019-03-10T00:26:15.429Z,31.93
2019-03-10T00:29:19.949Z,31.89
2019-03-10T00:32:23.403Z,31.75
2019-03-10T00:35:26.878Z,31.90
2019-03-10T00:38:54.427Z,31.79
2019-03-10T00:42:30.612Z,32.03
2019-03-10T00:45:59.497Z,31.81
2019-03-10T00:49:32.785Z,31.76
2019-03-10T00:52:43.192Z,31.87
2019-03-10T00:55:46.758Z,31.90
2019-03-10T00:58:50.279Z,31.94
2019-03-10T01:01:53.774Z,31.91
2019-03-10T01:04:57.237Z,31.90
2019-03-10T01:08:00.784Z,32.06
2019-03-10T01:11:04.258Z,32.05
2019-03-10T01:14:07.760Z,32.01
2019-03-10T01:17:11.279Z,31.96
2019-03-10T01:20:14.780Z,31.94
2019-03-10T01:23:18.207Z,31.94
2019-03-10T01:26:21.667Z,31.93
2019-03-10T01:29:25.255Z,31.98
2019-03-10T01:33:07.728Z,31.95
2019-03-10T01:36:19.006Z,32.04
2019-03-10T01:39:22.458Z,32.08
2019-03-10T01:42:26.979Z,31.91
2019-03-10T01:45:31.525Z,31.90
2019-03-10T01:48:35.052Z,31.96
2019-03-10T01:51:38.463Z,32.01
2019-03-10T01:54:41.912Z,31.96
2019-03-10T01:57:45.547Z,32.01
2019-03-10T02:00:49.020Z,32.13
2019-03-10T02:03:52.440Z,31.98
2019-03-10T02:06:55.922Z,32.04
2019-03-10T02:09:59.510Z,32.06
2019-03-10T02:13:03.038Z,32.01
2019-03-10T02:16:06.556Z,32.15
2019-03-10T02:19:11.037Z,32.08
2019-03-10T02:22:14.545Z,32.16
2019-03-10T02:25:18.042Z,32.10
2019-03-10T02:28:22.573Z,32.03
2019-03-10T02:31:26.011Z,32.08
2019-03-10T02:34:29.477Z,32.19
2019-03-10T02:37:33.079Z,32.06
2019-03-10T02:40:36.581Z,32.00
2019-03-10T02:43:40.107Z,32.03
2019-03-10T02:46:43.601Z,32.06
2019-03-10T02:49:47.038Z,32.09
2019-03-10T02:52:50.747Z,32.11
2019-03-10T02:55:54.184Z,32.20
2019-03-10T02:58:57.794Z,32.20
2019-03-10T03:02:01.300Z,32.06
2019-03-10T03:05:06.839Z,32.16
2019-03-10T03:08:10.286Z,32.12
2019-03-10T03:11:13.742Z,32.13
2019-03-10T03:14:17.355Z,32.12
2019-03-10T03:17:20.857Z,32.12
2019-03-10T03:20:25.307Z,32.15
2019-03-10T03:23:28.777Z,32.14
2019-03-10T03:26:32.382Z,32.18
2019-03-10T03:29:35.870Z,32.19
2019-03-10T03:32:39.366Z,32.28
2019-03-10T03:35:48.910Z,32.15
2019-03-10T03:39:06.550Z,32.18
2019-03-10T03:42:10.150Z,32.19
2019-03-10T03:45:14.673Z,32.21
2019-03-10T03:48:18.174Z,32.19
2019-03-10T03:51:21.713Z,32.22
2019-03-10T03:54:25.194Z,32.15
2019-03-10T03:57:28.699Z,32.19
2019-03-10T04:00:32.173Z,32.23
2019-03-10T04:03:35.621Z,32.14
2019-03-10T04:06:39.063Z,32.30
2019-03-10T04:09:42.682Z,32.19
2019-03-10T04:12:46.194Z,32.19
2019-03-10T04:15:50.704Z,32.22
2019-03-10T04:18:54.242Z,32.22
2019-03-10T04:21:57.722Z,32.25
2019-03-10T04:25:01.234Z,32.29
2019-03-10T04:28:05.742Z,32.28
2019-03-10T04:31:09.258Z,32.27
2019-03-10T04:34:12.745Z,32.30
2019-03-10T04:37:16.263Z,32.33
2019-03-10T04:40:19.742Z,32.33
2019-03-10T04:43:23.238Z,32.33
2019-03-10T04:46:27.757Z,32.37
2019-03-10T04:49:31.276Z,32.37
2019-03-10T04:52:36.115Z,32.38
2019-03-10T04:55:45.236Z,32.41
2019-03-10T04:58:50.789Z,32.41
2019-03-10T05:01:54.295Z,32.37
2019-03-10T05:04:57.785Z,32.37
2019-03-10T05:08:01.294Z,32.34
2019-03-10T05:11:04.789Z,32.35
2019-03-10T05:14:08.292Z,32.36
2019-03-10T05:17:11.789Z,32.35
2019-03-10T05:20:15.301Z,32.37
2019-03-10T05:23:33.431Z,32.35
2019-03-10T05:26:37.043Z,32.35
2019-03-10T05:29:40.537Z,32.41
2019-03-10T05:32:45.067Z,32.36
2019-03-10T05:35:48.571Z,32.32
2019-03-10T05:38:52.060Z,32.38
2019-03-10T05:41:55.522Z,32.35
2019-03-10T05:44:58.972Z,32.28
2019-03-10T05:48:02.576Z,32.34
2019-03-10T05:51:07.108Z,32.35
2019-03-10T05:54:10.534Z,32.37
2019-03-10T05:57:14.126Z,32.41
2019-03-10T06:00:17.604Z,32.35
2019-03-10T06:03:21.027Z,32.39
2019-03-10T06:06:24.505Z,32.35
2019-03-10T06:09:28.037Z,32.42
2019-03-10T06:12:31.571Z,32.37
2019-03-10T06:15:35.002Z,32.37
2019-03-10T06:18:38.619Z,32.41
2019-03-10T06:21:43.115Z,32.43
2019-03-10T06:24:46.637Z,32.45
2019-03-10T06:27:50.144Z,32.42
2019-03-10T06:30:53.622Z,32.41
2019-03-10T06:33:57.050Z,32.45
2019-03-10T06:37:00.589Z,32.46
2019-03-10T06:40:04.353Z,32.45
2019-03-10T06:43:07.846Z,32.50
2019-03-10T06:46:11.264Z,32.51
2019-03-10T06:49:14.847Z,32.52
2019-03-10T06:52:18.350Z,32.53
2019-03-10T06:55:21.862Z,32.52
2019-03-10T06:58:25.339Z,32.53
2019-03-10T07:01:28.913Z,32.53
2019-03-10T07:04:32.376Z,32.53
2019-03-10T07:07:35.881Z,32.53
2019-03-10T07:10:39.364Z,32.55
2019-03-10T07:13:43.876Z,32.55
2019-03-10T07:16:48.409Z,32.58
2019-03-10T07:19:53.869Z,32.53
2019-03-10T07:22:58.497Z,32.55
2019-03-10T07:26:08.652Z,32.55
2019-03-10T07:29:17.214Z,32.56
2019-03-10T07:32:29.153Z,32.58
2019-03-10T07:35:47.516Z,32.58
2019-03-10T07:39:29.296Z,32.59
2019-03-10T07:42:47.571Z,32.63
2019-03-10T07:46:09.174Z,32.64
2019-03-10T07:49:31.832Z,32.62
2019-03-10T07:52:54.292Z,32.63
2019-03-10T07:56:27.366Z,32.64
2019-03-10T07:59:37.843Z,32.64
2019-03-10T08:02:47.877Z,32.65
2019-03-10T08:06:01.572Z,32.65
2019-03-10T08:09:15.477Z,32.64
2019-03-10T08:12:27.899Z,32.64
2019-03-10T08:15:39.674Z,32.65
2019-03-10T08:18:48.095Z,32.66
2019-03-10T08:22:29.150Z,32.65
2019-03-10T08:26:09.755Z,32.67
2019-03-10T08:29:30.934Z,32.67
2019-03-10T08:32:52.015Z,32.99
2019-03-10T08:36:08.505Z,33.51
2019-03-10T08:39:32.568Z,33.72
2019-03-10T08:42:45.379Z,33.65
2019-03-10T08:45:54.976Z,33.62
2019-03-10T08:49:20.644Z,33.62
2019-03-10T08:52:29.403Z,33.70
2019-03-10T08:55:46.493Z,33.64
2019-03-10T08:59:01.572Z,33.61
2019-03-10T09:02:13.757Z,33.59
2019-03-10T09:05:34.262Z,33.54
2019-03-10T09:08:46.056Z,33.61
2019-03-10T09:12:08.606Z,33.55
2019-03-10T09:15:19.404Z,33.56
2019-03-10T09:18:40.780Z,33.57
2019-03-10T09:22:02.186Z,33.56
2019-03-10T09:25:14.265Z,33.50
2019-03-10T09:28:39.615Z,33.50
2019-03-10T09:31:49.692Z,33.49
2019-03-10T09:35:05.174Z,33.45
2019-03-10T09:38:34.319Z,33.48
2019-03-10T09:41:55.620Z,33.47
2019-03-10T09:45:09.083Z,33.46
2019-03-10T09:48:37.576Z,33.44
2019-03-10T09:51:47.819Z,33.47
2019-03-10T09:55:09.297Z,33.50
2019-03-10T09:58:28.051Z,33.49
2019-03-10T10:01:46.497Z,33.46
2019-03-10T10:05:06.067Z,33.46
2019-03-10T10:08:28.053Z,33.43
2019-03-10T10:11:49.311Z,33.42
2019-03-10T10:15:23.966Z,33.49
2019-03-10T10:18:35.044Z,33.46
2019-03-10T10:21:50.457Z,33.43
2019-03-10T10:25:12.995Z,33.42
2019-03-10T10:28:35.933Z,33.48
2019-03-10T10:32:01.536Z,33.43
2019-03-10T10:35:28.559Z,33.44
2019-03-10T10:38:39.960Z,33.47
2019-03-10T10:42:17.802Z,33.52
2019-03-10T10:45:38.608Z,33.44
2019-03-10T10:48:52.222Z,33.45
2019-03-10T10:52:04.547Z,33.47
2019-03-10T10:55:19.201Z,33.40
2019-03-10T10:58:40.646Z,33.33
2019-03-10T11:02:04.879Z,33.24
2019-03-10T11:05:26.491Z,33.28
2019-03-10T11:08:54.831Z,33.30
2019-03-10T11:12:20.349Z,33.28
2019-03-10T11:15:36.191Z,33.31
2019-03-10T11:18:57.495Z,33.34
2019-03-10T11:22:12.520Z,33.35
2019-03-10T11:25:24.308Z,33.63
2019-03-10T11:28:52.731Z,33.78
2019-03-10T11:32:30.412Z,33.82
2019-03-10T11:35:48.866Z,33.80
2019-03-10T11:39:00.551Z,33.77
2019-03-10T11:42:31.779Z,33.79
2019-03-10T11:45:55.277Z,33.79
2019-03-10T11:49:11.473Z,33.78
2019-03-10T11:52:22.560Z,33.71
2019-03-10T11:55:51.034Z,33.72
2019-03-10T11:59:13.677Z,33.72
2019-03-10T12:02:35.048Z,33.67
2019-03-10T12:05:48.163Z,33.65
2019-03-10T12:08:59.274Z,33.65
2019-03-10T12:12:02.705Z,33.66
2019-03-10T12:15:07.169Z,33.63
2019-03-10T12:18:11.674Z,33.63
2019-03-10T12:21:21.103Z,33.63
2019-03-10T12:24:24.604Z,33.65
2019-03-10T12:27:28.051Z,33.61
2019-03-10T12:30:31.479Z,33.62
2019-03-10T12:33:34.998Z,33.62
2019-03-10T12:36:38.605Z,33.60
2019-03-10T12:39:42.093Z,33.55
2019-03-10T12:42:45.613Z,33.58
2019-03-10T12:45:49.033Z,33.57
2019-03-10T12:48:52.639Z,33.61
2019-03-10T12:51:56.092Z,33.64
2019-03-10T12:54:59.614Z,33.57
2019-03-10T12:58:04.037Z,33.59
2019-03-10T13:01:07.470Z,33.59
2019-03-10T13:04:10.927Z,33.59
2019-03-10T13:07:14.486Z,33.57
2019-03-10T13:10:17.940Z,33.61
2019-03-10T13:13:21.370Z,33.62
2019-03-10T13:16:24.936Z,33.49
2019-03-10T13:19:29.465Z,33.41
2019-03-10T13:22:33.994Z,33.37
2019-03-10T13:25:38.546Z,33.33
2019-03-10T13:28:42.012Z,33.31
2019-03-10T13:31:45.639Z,33.29
2019-03-10T13:34:49.066Z,33.29
2019-03-10T13:37:52.525Z,33.32
2019-03-10T13:40:56.013Z,33.31
2019-03-10T13:44:01.564Z,33.39
2019-03-10T13:47:04.980Z,33.36
2019-03-10T13:50:09.951Z,33.45
2019-03-10T13:53:14.445Z,33.44
2019-03-10T13:56:17.916Z,33.52
2019-03-10T13:59:21.334Z,33.54
2019-03-10T14:02:24.755Z,33.55
2019-03-10T14:05:28.157Z,33.57
2019-03-10T14:08:31.588Z,33.57
2019-03-10T14:11:35.013Z,33.55
2019-03-10T14:14:38.654Z,33.48
2019-03-10T14:17:42.157Z,33.50
2019-03-10T14:20:46.647Z,33.49
2019-03-10T14:23:50.192Z,33.82
2019-03-10T14:26:53.667Z,33.79
2019-03-10T14:29:57.149Z,33.79
2019-03-10T14:33:00.592Z,33.78
2019-03-10T14:36:04.066Z,33.77
2019-03-10T14:39:07.910Z,33.75
2019-03-10T14:42:11.488Z,33.76
2019-03-10T14:45:15.277Z,33.71
2019-03-10T14:48:18.788Z,33.73
2019-03-10T14:51:24.478Z,33.71
2019-03-10T14:54:29.082Z,33.73
2019-03-10T14:57:32.577Z,33.69
2019-03-10T15:00:36.055Z,33.70
2019-03-10T15:03:42.070Z,33.70
2019-03-10T15:06:45.463Z,33.68
2019-03-10T15:09:49.033Z,33.74
2019-03-10T15:12:52.464Z,33.71
2019-03-10T15:15:56.042Z,33.73
2019-03-10T15:19:00.559Z,33.73
2019-03-10T15:22:05.101Z,33.70
2019-03-10T15:25:09.625Z,33.63
2019-03-10T15:28:14.123Z,33.59
2019-03-10T15:31:17.737Z,33.82
2019-03-10T15:34:21.841Z,34.01
2019-03-10T15:37:25.443Z,34.00
2019-03-10T15:40:28.871Z,34.10
2019-03-10T15:43:32.288Z,34.18
2019-03-10T15:46:35.782Z,34.23
2019-03-10T15:49:39.243Z,34.15
2019-03-10T15:52:43.569Z,34.12
2019-03-10T15:55:47.069Z,34.11
2019-03-10T15:58:50.547Z,34.13
2019-03-10T16:01:53.976Z,34.04
2019-03-10T16:04:58.596Z,34.03
2019-03-10T16:08:02.118Z,34.15
2019-03-10T16:11:05.594Z,34.13
2019-03-10T16:14:11.322Z,34.12
2019-03-10T16:17:14.957Z,34.04
2019-03-10T16:20:18.572Z,34.06
2019-03-10T16:23:22.082Z,34.07
2019-03-10T16:26:25.561Z,34.09
2019-03-10T16:29:31.115Z,34.02
2019-03-10T16:32:34.668Z,33.94
2019-03-10T16:35:38.114Z,33.85
2019-03-10T16:38:43.551Z,33.79
2019-03-10T16:41:46.958Z,33.76
2019-03-10T16:44:50.468Z,34.07
2019-03-10T16:47:53.949Z,34.10
2019-03-10T16:50:57.464Z,34.05
2019-03-10T16:54:00.894Z,34.09
2019-03-10T16:57:05.327Z,34.11
2019-03-10T17:00:12.634Z,34.12
2019-03-10T17:03:16.198Z,34.12
2019-03-10T17:06:19.825Z,34.12
2019-03-10T17:09:23.275Z,34.10
2019-03-10T17:12:26.883Z,34.05
2019-03-10T17:15:30.404Z,34.09
2019-03-10T17:18:33.999Z,34.17
2019-03-10T17:21:37.418Z,34.11
2019-03-10T17:24:40.928Z,34.04
2019-03-10T17:27:44.351Z,34.03
2019-03-10T17:30:48.760Z,34.05
2019-03-10T17:33:52.208Z,34.04
2019-03-10T17:36:55.678Z,34.06
2019-03-10T17:39:59.110Z,34.46
2019-03-10T17:43:02.556Z,34.51
2019-03-10T17:46:06.037Z,34.52
2019-03-10T17:49:09.458Z,34.55
2019-03-10T17:52:14.659Z,34.45
2019-03-10T17:55:18.630Z,34.42
2019-03-10T17:58:22.067Z,34.41
2019-03-10T18:01:25.596Z,34.42
2019-03-10T18:04:29.173Z,34.35
2019-03-10T18:07:32.783Z,34.31
2019-03-10T18:10:36.274Z,34.32
2019-03-10T18:13:39.771Z,34.35
2019-03-10T18:16:43.769Z,34.25
2019-03-10T18:19:48.713Z,34.17
2019-03-10T18:22:53.511Z,34.06
2019-03-10T18:25:57.099Z,33.92
2019-03-10T18:29:00.547Z,34.07
2019-03-10T18:32:03.977Z,34.13
2019-03-10T18:35:07.493Z,34.08
2019-03-10T18:38:11.059Z,34.07
2019-03-10T18:41:14.525Z,33.89
2019-03-10T18:44:18.375Z,33.85
2019-03-10T18:47:22.123Z,33.57
2019-03-10T18:50:25.607Z,33.60
2019-03-10T18:53:29.128Z,33.20
2019-03-10T18:56:32.896Z,33.20
2019-03-10T18:59:36.378Z,33.03
2019-03-10T19:02:39.946Z,33.11
2019-03-10T19:05:46.407Z,32.96
2019-03-10T19:08:49.957Z,33.00
2019-03-10T19:11:53.594Z,32.92
2019-03-10T19:14:57.092Z,32.86
2019-03-10T19:18:00.683Z,32.83
2019-03-10T19:21:04.213Z,32.61
2019-03-10T19:24:07.700Z,32.72
2019-03-10T19:27:11.177Z,32.65
2019-03-10T19:30:15.492Z,32.69
2019-03-10T19:33:18.999Z,32.72
2019-03-10T19:36:23.587Z,32.71
2019-03-10T19:39:27.043Z,32.76
2019-03-10T19:42:30.591Z,32.72
2019-03-10T19:45:34.092Z,32.58
2019-03-10T19:48:37.631Z,32.54
2019-03-10T19:51:41.100Z,32.70
2019-03-10T19:54:44.740Z,32.26
2019-03-10T19:57:48.261Z,32.31
2019-03-10T20:00:53.037Z,32.42
2019-03-10T20:03:56.457Z,32.51
2019-03-10T20:06:59.972Z,32.51
2019-03-10T20:10:03.507Z,32.40
2019-03-10T20:13:06.982Z,32.29
2019-03-10T20:16:10.474Z,32.37
2019-03-10T20:19:14.011Z,32.19
2019-03-10T20:22:17.486Z,32.17
2019-03-10T20:25:20.973Z,32.23
2019-03-10T20:28:25.506Z,32.07
2019-03-10T20:31:29.011Z,32.06
2019-03-10T20:34:32.514Z,32.06
2019-03-10T20:37:35.949Z,32.04
2019-03-10T20:40:39.483Z,31.87
2019-03-10T20:43:43.018Z,31.79
2019-03-10T20:46:46.521Z,31.66
2019-03-10T20:49:50.193Z,31.69
2019-03-10T20:52:53.723Z,31.67
2019-03-10T20:55:57.147Z,31.93
2019-03-10T20:59:00.624Z,32.04
2019-03-10T21:02:04.131Z,32.06
2019-03-10T21:05:08.734Z,31.77
2019-03-10T21:08:12.177Z,31.72
2019-03-10T21:11:15.747Z,30.48
2019-03-10T21:14:19.238Z,30.13
2019-03-10T21:17:22.780Z,31.20
2019-03-10T21:20:27.352Z,31.32
2019-03-10T21:23:31.048Z,30.96
2019-03-10T21:26:34.567Z,30.55
2019-03-10T21:29:38.286Z,30.72
2019-03-10T21:32:41.857Z,30.66
2019-03-10T21:35:46.419Z,30.76
2019-03-10T21:38:49.852Z,30.63
2019-03-10T21:41:53.311Z,30.78
2019-03-10T21:44:56.918Z,30.81
2019-03-10T21:48:00.421Z,30.73
2019-03-10T21:51:03.854Z,30.97
2019-03-10T21:54:07.444Z,30.97
2019-03-10T21:57:10.921Z,30.98
2019-03-10T22:00:14.433Z,31.05
2019-03-10T22:03:17.948Z,31.18
2019-03-10T22:06:21.360Z,31.18
2019-03-10T22:09:24.822Z,31.17
2019-03-10T22:12:28.317Z,31.23
2019-03-10T22:15:41.150Z,31.41
2019-03-10T22:18:40.136Z,31.30
2019-03-10T22:21:43.749Z,31.41
2019-03-10T22:24:47.346Z,31.87
2019-03-10T22:27:50.841Z,31.57
2019-03-10T22:30:54.360Z,31.46
2019-03-10T22:33:58.877Z,31.68
2019-03-10T22:37:02.320Z,31.47
2019-03-10T22:40:06.065Z,31.47
2019-03-10T22:43:09.595Z,31.40
2019-03-10T22:46:13.072Z,31.56
2019-03-10T22:49:16.494Z,31.64
2019-03-10T22:52:21.107Z,31.58
2019-03-10T22:55:24.602Z,31.68
2019-03-10T22:58:28.106Z,31.80
2019-03-10T23:01:31.819Z,31.64
2019-03-10T23:04:35.334Z,31.77
2019-03-10T23:07:38.876Z,31.65
2019-03-10T23:10:42.302Z,31.74
2019-03-10T23:13:45.836Z,31.87
2019-03-10T23:16:49.283Z,31.82
2019-03-10T23:19:52.877Z,31.90
2019-03-10T23:22:56.366Z,31.97
2019-03-10T23:25:59.825Z,31.81
2019-03-10T23:29:04.355Z,31.80
2019-03-10T23:32:08.886Z,31.98
2019-03-10T23:35:13.423Z,31.85
2019-03-10T23:38:16.893Z,31.93
2019-03-10T23:41:20.401Z,31.92
2019-03-10T23:44:23.894Z,31.95
2019-03-10T23:47:27.405Z,31.92
2019-03-10T23:50:31.914Z,31.93
2019-03-10T23:53:35.460Z,31.95
2019-03-10T23:56:39.940Z,31.96
2019-03-10T23:59:44.495Z,32.04
